Πλησιέστερες Αναφορές METAR

 

LGTS - Thessaloniki/Makedonia-Elev 7m
Distance from station: Ν 13km
Ενημερώθηκε: 11/04/2021 13:20
Αίθριος
Αίθριος
 Ανεμος από ΒΔ
Ανεμος: ΒΔ 13 km/h
Θερμοκρασία: 15°C
Σημείο Δρόσου: 6°C
Υγρασία: 55%
Βαρόμετρο: 1025 hPa
Συνθήκες: Αίθριος
Visibility: greater than 10 km
2021/04/11 10:20 LGTS 111020Z 31007KT CAVOK 15/06 Q1025 NOSIG
LGAV - Athens/Elef. Venizelos-Elev 94m
Distance from station: ΝΝΑ 312km
Ενημερώθηκε: 11/04/2021 13:20
Few Clouds
Few Clouds
 Ανεμος από ΑΝΑ
Ανεμος: ΑΝΑ 9 km/h
Θερμοκρασία: 16°C
Σημείο Δρόσου: 0°C
Υγρασία: 34%
Βαρόμετρο: 1025 hPa
Clouds: Few Clouds
Visibility: 10 km
Cloud details: Few Clouds 914 m
2021/04/11 10:20 LGAV 111020Z 12005KT 070V170 9999 FEW030 16/M00 Q1025 NOSIG
 
LGAL - Alexandroupolis-Elev 3m
Distance from station: Α 251km
Ενημερώθηκε: 11/04/2021 13:20
Few Clouds
Few Clouds
 Ανεμος από ΑΝΑ
Ανεμος: ΑΝΑ 20 km/h
Θερμοκρασία: 14°C
Σημείο Δρόσου: -3°C
Υγρασία: 31%
Βαρόμετρο: 1025 hPa
Clouds: Few Clouds
Visibility: 10 km
Cloud details: Few Clouds 762 m
2021/04/11 10:20 LGAL 111020Z 11011KT 9999 FEW025 14/M03 Q1025
LGKV - Kavala/Crysoupolis-Elev 5m
Distance from station: ΑΒΑ 144km
Ενημερώθηκε: 11/04/2021 13:20
Few Clouds
Few Clouds
 Ανεμος από ΝΑ
Ανεμος: ΝΑ 15 km/h
Θερμοκρασία: 14°C
Σημείο Δρόσου: 4°C
Υγρασία: 51%
Βαρόμετρο: 1025 hPa
Clouds: Few Clouds
Visibility: 10 km
Cloud details: Few Clouds 914 m
2021/04/11 10:20 LGKV 111020Z 14008KT 9999 FEW030 14/04 Q1025
 
LGSK - Skiathos Island-Elev 15m
Distance from station: ΝΝΑ 168km
Ενημερώθηκε: 11/04/2021 11:50
Μη Ενημερωμένο!
Αίθριος
Αίθριος
 Ανεμος από Α
Ανεμος: Α 7 km/h
Θερμοκρασία: 14°C
Σημείο Δρόσου: 6°C
Υγρασία: 59%
Βαρόμετρο: 1024 hPa
Συνθήκες: Αίθριος
Visibility: greater than 10 km
2021/04/11 08:50 LGSK 110850Z 10004KT CAVOK 14/06 Q1024
LGLM - Limnos Island-Elev 5m
Distance from station: ΑΝΑ 210km
Ενημερώθηκε: 11/04/2021 13:20
Αίθριος
Αίθριος
 Ανεμος από ΒΒΑ
Ανεμος: ΒΒΑ 6 km/h
Θερμοκρασία: 15°C
Σημείο Δρόσου: 1°C
Υγρασία: 39%
Βαρόμετρο: 1025 hPa
Συνθήκες: Αίθριος
Visibility: greater than 10 km
2021/04/11 10:20 LGLM 111020Z 02003KT CAVOK 15/01 Q1025
 
LGMT - Mitilini Island-Elev 17m
Distance from station: ΑΝΑ 358km
Ενημερώθηκε: 11/04/2021 13:20
Αίθριος
Αίθριος
 Ανεμος από ΒΒΔ
Ανεμος: ΒΒΔ 19 km/h
Θερμοκρασία: 13°C
Σημείο Δρόσου: -2°C
Υγρασία: 36%
Βαρόμετρο: 1025 hPa
Συνθήκες: Αίθριος
Visibility: greater than 10 km
2021/04/11 10:20 LGMT 111020Z 33010KT CAVOK 13/M02 Q1025
LGSY - Skiros Island-Elev 15m
Distance from station: ΝΑ 227km
Ενημερώθηκε: 11/04/2021 12:50
Few Clouds
Few Clouds
 Ανεμος από ΑΒΑ
Ανεμος: ΑΒΑ 11 km/h
Θερμοκρασία: 15°C
Σημείο Δρόσου: 9°C
Υγρασία: 68%
Βαρόμετρο: 1025 hPa
Clouds: Few Clouds
Visibility: 10 km
Cloud details: Few Clouds 914 m
2021/04/11 09:50 LGSY 110950Z 07006KT 9999 FEW030 15/09 Q1025 RMK FEW180 BLU
 
LGKZ - Kozani-Elev 628m
Distance from station: ΔΝΔ 102km
Ενημερώθηκε: 11/04/2021 12:50
Few Clouds
Few Clouds
 Ανεμος από calm
Ανεμος: Απνοια
Θερμοκρασία: 14°C
Σημείο Δρόσου: -4°C
Υγρασία: 29%
Βαρόμετρο: 1024 hPa
Clouds: Few Clouds
Visibility: 10 km
Cloud details: Few Clouds 2134 m
2021/04/11 09:50 LGKZ 110950Z 00000KT 9999 FEW070 14/M04 Q1024
LGIO - Ioannina-Elev 476m
Distance from station: ΔΝΔ 209km
Ενημερώθηκε: 11/04/2021 13:20

 Ανεμος από varies
Ανεμος: varies 6 km/h
Θερμοκρασία: 16°C
Σημείο Δρόσου: 4°C
Υγρασία: 45%
Βαρόμετρο: 1023 hPa
2021/04/11 10:20 LGIO 111020Z AUTO VRB03KT //// // ////// 16/04 Q1023 RE//
 
LGZA - Zakinthos-Elev 3m
Distance from station: ΝΝΔ 367km
Ενημερώθηκε: 11/04/2021 12:50
Few Clouds
Few Clouds
 Ανεμος από varies
Ανεμος: varies 6 km/h
Θερμοκρασία: 15°C
Σημείο Δρόσου: 6°C
Υγρασία: 55%
Βαρόμετρο: 1024 hPa
Clouds: Few Clouds
Visibility: 10 km
Cloud details: Few Clouds 549 m
2021/04/11 09:50 LGZA 110950Z VRB03KT 9999 FEW018 15/06 Q1024
LGKR - Corfu Island-Elev 2m
Distance from station: ΔΝΔ 282km
Ενημερώθηκε: 11/04/2021 13:20
Few Clouds
Few Clouds
 Ανεμος από ΝΑ
Ανεμος: ΝΑ 13 km/h
Θερμοκρασία: 17°C
Σημείο Δρόσου: 7°C
Υγρασία: 52%
Βαρόμετρο: 1024 hPa
Clouds: Few Clouds
Visibility: 10 km
Cloud details: Few Clouds 549 m
2021/04/11 10:20 LGKR 111020Z 14007KT 9999 FEW018 17/07 Q1024 NOSIG
 
LGSO - Syros Island-Elev 72m
Distance from station: ΝΝΑ 397km
Ενημερώθηκε: 11/04/2021 12:50
Αίθριος
Αίθριος
 Ανεμος από ΒΒΑ
Ανεμος: ΒΒΑ 17 km/h
Θερμοκρασία: 15°C
Σημείο Δρόσου: 0°C
Υγρασία: 36%
Βαρόμετρο: 1025 hPa
Συνθήκες: Αίθριος
Visibility: greater than 10 km
2021/04/11 09:50 LGSO 110950Z 03009KT CAVOK 15/00 Q1025
LGMK - Mikonos Island-Elev 123m
Distance from station: ΝΝΑ 412km
Ενημερώθηκε: 11/04/2021 12:50
Αίθριος
Αίθριος
 Ανεμος από Β
Ανεμος: Β 22 km/h
Θερμοκρασία: 15°C
Σημείο Δρόσου: 4°C
Υγρασία: 48%
Βαρόμετρο: 1024 hPa
Συνθήκες: Αίθριος
Visibility: greater than 10 km
2021/04/11 09:50 LGMK 110950Z 36012KT CAVOK 15/04 Q1024
 
LGSR - Santorini Island-Elev 40m
Distance from station: ΝΝΑ 520km
Ενημερώθηκε: 11/04/2021 13:20
Few Clouds
Few Clouds
 Ανεμος από Β
Ανεμος: Β 24 km/h
Θερμοκρασία: 15°C
Σημείο Δρόσου: 0°C
Υγρασία: 36%
Βαρόμετρο: 1024 hPa
Clouds: Few Clouds
Visibility: 10 km
Cloud details: Few Clouds 610 m
2021/04/11 10:20 LGSR 111020Z 01013KT 9999 FEW020 15/M00 Q1024
LGKL - Kalamata-Elev 8m
Distance from station: Ν 405km
Ενημερώθηκε: 11/04/2021 13:20
Few Clouds
Few Clouds
 Ανεμος από ΝΑ
Ανεμος: ΝΑ 19 km/h
Θερμοκρασία: 18°C
Σημείο Δρόσου: 4°C
Υγρασία: 40%
Βαρόμετρο: 1024 hPa
Clouds: Few Clouds
Visibility: 10 km
Cloud details: Few Clouds 914 m
2021/04/11 10:20 LGKL 111020Z 14010KT 9999 FEW030 18/04 Q1024
 
LGIR - Iraklion/Crete-Elev 5m
Distance from station: ΝΝΑ 622km
Ενημερώθηκε: 11/04/2021 13:20
Few Clouds
Few Clouds
 Ανεμος από ΒΒΔ
Ανεμος: ΒΒΔ 20 km/h
Θερμοκρασία: 16°C
Σημείο Δρόσου: 7°C
Υγρασία: 55%
Βαρόμετρο: 1024 hPa
Clouds: Few Clouds
Visibility: 10 km
Cloud details: Few Clouds 762 m
2021/04/11 10:20 LGIR 111020Z 33011KT 9999 FEW025 16/07 Q1024 NOSIG
LGRP - Rhodes-Elev 5m
Distance from station: ΝΑ 649km
Ενημερώθηκε: 11/04/2021 13:20
Αίθριος
Αίθριος
 Ανεμος από Δ
Ανεμος: Δ 26 km/h
Θερμοκρασία: 14°C
Σημείο Δρόσου: 0°C
Υγρασία: 39%
Βαρόμετρο: 1018 hPa
Συνθήκες: Αίθριος
Visibility: greater than 10 km
2021/04/11 10:20 LGRP 111020Z 28014KT CAVOK 14/00 Q1018 NOSIG
 
LWOH - Ohrid/FYROM-Elev 761m
Distance from station: ΔΒΔ 188km
Ενημερώθηκε: 11/04/2021 13:30
Μερικώς νεφελώδης
Μερικώς νεφελώδης
 Ανεμος από Ν
Ανεμος: Ν 9 km/h
Θερμοκρασία: 11°C
Σημείο Δρόσου: -1°C
Υγρασία: 44%
Βαρόμετρο: 1023 hPa
Clouds: Μερικώς νεφελώδης
Visibility: 10 km
Cloud details: Μερικώς νεφελώδης 2743 m
2021/04/11 10:30 LWOH 111030Z 17005KT 9999 SCT090 11/M01 Q1023
LBSF - Sofia/Bulgaria-Elev 595m
Distance from station: Β 227km
Ενημερώθηκε: 11/04/2021 13:30
Αίθριος
Αίθριος
 Ανεμος από varies
Ανεμος: varies 4 km/h
Θερμοκρασία: 14°C
Σημείο Δρόσου: -4°C
Υγρασία: 29%
Βαρόμετρο: 1023 hPa
Συνθήκες: Αίθριος
Visibility: greater than 10 km
2021/04/11 10:30 LBSF 111030Z VRB02KT CAVOK 14/M04 Q1023 NOSIG
Σημερινά ρεκόρ Μετεωρολογικού Σταθμού
Δεν έχει σημειωθεί νέο ρεκόρ μέχρι τις 13:50 σήμερα - 11/4/2021